createdAt,value
2022-12-18T00:00:01.248Z,92.04
2022-12-18T00:05:05.105Z,91.86
2022-12-18T00:10:09.076Z,91.81
2022-12-18T00:15:11.970Z,91.64
2022-12-18T00:20:15.009Z,91.72
2022-12-18T00:25:17.965Z,91.74
2022-12-18T00:30:21.019Z,91.64
2022-12-18T00:35:23.970Z,91.65
2022-12-18T00:40:26.893Z,91.74
2022-12-18T00:45:32.264Z,91.57
2022-12-18T00:50:35.330Z,91.39
2022-12-18T00:55:42.362Z,91.23
2022-12-18T01:00:45.465Z,91.23
2022-12-18T01:05:48.742Z,91.09
2022-12-18T01:10:52.020Z,90.97
2022-12-18T01:15:54.962Z,91.00
2022-12-18T01:20:57.991Z,91.01
2022-12-18T01:26:08.223Z,91.01
2022-12-18T01:31:20.890Z,90.95
2022-12-18T01:36:36.554Z,90.91
2022-12-18T01:41:58.777Z,90.93
2022-12-18T01:47:01.964Z,90.84
2022-12-18T01:52:05.037Z,90.86
2022-12-18T01:57:08.361Z,90.82
2022-12-18T02:02:12.859Z,90.69
2022-12-18T02:07:15.841Z,90.53
2022-12-18T02:12:25.036Z,90.39
2022-12-18T02:18:03.751Z,90.35
2022-12-18T02:23:45.881Z,90.26
2022-12-18T02:28:57.499Z,89.96
2022-12-18T02:34:05.909Z,89.91
2022-12-18T02:39:13.626Z,89.93
2022-12-18T02:44:16.631Z,89.99
2022-12-18T02:49:58.679Z,90.04
2022-12-18T02:55:29.121Z,90.01
2022-12-18T03:00:41.989Z,89.88
2022-12-18T03:06:31.257Z,89.64
2022-12-18T03:11:58.897Z,89.46
2022-12-18T03:17:06.304Z,89.32
2022-12-18T03:22:11.637Z,89.24
2022-12-18T03:27:19.477Z,89.40
2022-12-18T03:32:42.365Z,89.36
2022-12-18T03:37:45.351Z,89.24
2022-12-18T03:42:59.945Z,89.00
2022-12-18T03:48:18.628Z,88.88
2022-12-18T03:54:00.190Z,88.86
2022-12-18T03:59:05.757Z,88.81
2022-12-18T04:04:12.292Z,88.68
2022-12-18T04:09:16.036Z,88.59
2022-12-18T04:14:20.221Z,88.51
2022-12-18T04:19:23.248Z,88.58
2022-12-18T04:24:26.655Z,88.48
2022-12-18T04:29:29.718Z,88.50
2022-12-18T04:34:33.197Z,88.70
2022-12-18T04:39:36.892Z,88.91
2022-12-18T04:44:39.835Z,88.96
2022-12-18T04:49:42.793Z,88.92
2022-12-18T04:54:45.722Z,88.97
2022-12-18T04:59:48.703Z,89.09
2022-12-18T05:04:51.668Z,89.29
2022-12-18T05:09:54.702Z,89.32
2022-12-18T05:14:57.618Z,89.22
2022-12-18T05:20:00.472Z,89.15
2022-12-18T05:25:03.554Z,89.11
2022-12-18T05:30:07.553Z,89.13
2022-12-18T05:35:12.318Z,89.31
2022-12-18T05:40:15.294Z,89.38
2022-12-18T05:45:18.742Z,89.42
2022-12-18T05:50:21.629Z,89.42
2022-12-18T05:55:24.612Z,89.40
2022-12-18T06:00:28.128Z,89.39
2022-12-18T06:05:38.264Z,89.31
2022-12-18T06:10:42.825Z,89.33
2022-12-18T06:15:45.991Z,89.39
2022-12-18T06:20:57.526Z,89.38
2022-12-18T06:26:08.856Z,89.40
2022-12-18T06:31:12.629Z,89.37
2022-12-18T06:36:15.800Z,89.26
2022-12-18T06:41:22.284Z,89.17
2022-12-18T06:46:25.516Z,89.14
2022-12-18T06:51:28.453Z,89.00
2022-12-18T06:56:32.140Z,89.09
2022-12-18T07:01:35.120Z,89.06
2022-12-18T07:06:38.159Z,88.90
2022-12-18T07:11:41.187Z,89.04
2022-12-18T07:16:44.198Z,89.18
2022-12-18T07:21:47.141Z,89.18
2022-12-18T07:26:50.078Z,89.14
2022-12-18T07:31:53.085Z,88.99
2022-12-18T07:36:56.025Z,88.72
2022-12-18T07:42:17.706Z,88.91
2022-12-18T07:47:20.733Z,88.89
2022-12-18T07:52:26.203Z,88.85
2022-12-18T08:02:52.591Z,88.97
2022-12-18T08:07:57.080Z,88.93
2022-12-18T08:13:04.679Z,88.71
2022-12-18T08:18:12.689Z,88.57
2022-12-18T08:23:16.941Z,88.48
2022-12-18T08:28:19.860Z,88.53
2022-12-18T08:33:22.863Z,88.43
2022-12-18T08:38:25.988Z,88.29
2022-12-18T08:43:48.124Z,88.24
2022-12-18T08:48:59.162Z,88.22
2022-12-18T08:54:02.175Z,88.04
2022-12-18T08:59:05.905Z,87.84
2022-12-18T09:04:11.089Z,87.91
2022-12-18T09:09:14.107Z,87.82
2022-12-18T09:14:17.084Z,87.84
2022-12-18T09:19:20.107Z,87.97
2022-12-18T09:24:23.007Z,88.06
2022-12-18T09:29:25.972Z,88.06
2022-12-18T09:34:28.964Z,88.00
2022-12-18T09:39:31.905Z,88.14
2022-12-18T09:44:45.748Z,88.19
2022-12-18T09:49:56.247Z,88.01
2022-12-18T09:55:11.909Z,88.03
2022-12-18T10:00:22.918Z,88.10
2022-12-18T10:05:58.274Z,88.00
2022-12-18T10:11:18.576Z,87.72
2022-12-18T10:16:55.585Z,87.39
2022-12-18T10:22:22.043Z,86.80
2022-12-18T10:27:29.954Z,86.99
2022-12-18T10:32:33.971Z,86.80
2022-12-18T10:37:36.901Z,86.76
2022-12-18T10:42:40.777Z,86.60
2022-12-18T10:47:48.146Z,86.68
2022-12-18T10:53:01.560Z,86.44
2022-12-18T10:58:28.081Z,86.14
2022-12-18T11:03:47.874Z,85.94
2022-12-18T11:09:06.563Z,86.00
2022-12-18T11:14:27.133Z,86.10
2022-12-18T11:19:39.892Z,86.11
2022-12-18T11:24:43.254Z,86.21
2022-12-18T11:29:46.891Z,86.21
2022-12-18T11:35:00.792Z,86.28
2022-12-18T11:40:37.843Z,86.35
2022-12-18T11:45:55.885Z,86.46
2022-12-18T11:51:02.887Z,86.67
2022-12-18T11:56:37.016Z,86.69
2022-12-18T12:02:14.385Z,86.68
2022-12-18T12:07:35.866Z,86.73
2022-12-18T12:13:24.660Z,86.87
2022-12-18T12:18:58.364Z,86.90
2022-12-18T12:24:25.942Z,87.03
2022-12-18T12:29:50.468Z,87.05
2022-12-18T12:35:12.280Z,87.07
2022-12-18T12:40:50.328Z,87.04
2022-12-18T12:46:20.921Z,87.11
2022-12-18T12:51:31.096Z,87.10
2022-12-18T12:56:51.871Z,87.07
2022-12-18T13:02:22.301Z,86.97
2022-12-18T13:07:59.630Z,86.85
2022-12-18T13:13:11.156Z,86.82
2022-12-18T13:18:21.487Z,86.86
2022-12-18T13:23:24.313Z,86.83
2022-12-18T13:28:46.437Z,86.82
2022-12-18T13:39:19.792Z,86.80
2022-12-18T13:44:42.763Z,87.02
2022-12-18T13:49:48.151Z,87.17
2022-12-18T13:54:58.913Z,87.14
2022-12-18T14:00:26.372Z,87.06
2022-12-18T14:05:38.751Z,86.98
2022-12-18T14:10:48.308Z,87.04
2022-12-18T14:15:53.270Z,87.41
2022-12-18T14:21:00.008Z,88.13
2022-12-18T14:26:20.780Z,88.28
2022-12-18T14:31:30.611Z,88.54
2022-12-18T14:36:33.557Z,88.76
2022-12-18T14:41:36.593Z,88.80
2022-12-18T14:46:43.718Z,88.65
2022-12-18T14:51:53.998Z,88.81
2022-12-18T14:57:23.830Z,88.58
2022-12-18T15:02:29.764Z,88.64
2022-12-18T15:07:52.809Z,88.70
2022-12-18T15:13:03.572Z,88.64
2022-12-18T15:18:09.895Z,88.61
2022-12-18T15:23:25.231Z,88.57
2022-12-18T15:28:34.918Z,88.74
2022-12-18T15:33:43.980Z,88.89
2022-12-18T15:38:52.297Z,88.90
2022-12-18T15:43:55.330Z,88.83
2022-12-18T15:49:02.728Z,88.85
2022-12-18T15:54:14.667Z,88.79
2022-12-18T15:59:21.117Z,88.75
2022-12-18T16:04:24.727Z,88.68
2022-12-18T16:09:27.751Z,88.68
2022-12-18T16:14:32.591Z,88.70
2022-12-18T16:19:35.666Z,88.64
2022-12-18T16:24:38.689Z,88.75
2022-12-18T16:29:41.688Z,88.80
2022-12-18T16:34:46.371Z,88.83
2022-12-18T16:39:49.301Z,88.84
2022-12-18T16:44:52.315Z,88.78
2022-12-18T16:49:55.375Z,88.68
2022-12-18T16:54:58.493Z,88.61
2022-12-18T17:00:05.600Z,88.65
2022-12-18T17:05:09.578Z,88.61
2022-12-18T17:10:12.606Z,88.64
2022-12-18T17:15:15.549Z,88.74
2022-12-18T17:20:19.443Z,88.84
2022-12-18T17:25:22.962Z,88.82
2022-12-18T17:30:27.457Z,88.84
2022-12-18T17:35:31.271Z,88.84
2022-12-18T17:40:34.213Z,88.78
2022-12-18T17:45:39.638Z,88.76
2022-12-18T17:50:42.581Z,88.81
2022-12-18T17:55:55.581Z,88.81
2022-12-18T18:00:58.639Z,88.79
2022-12-18T18:06:02.597Z,88.68
2022-12-18T18:11:31.503Z,88.72
2022-12-18T18:16:44.899Z,88.65
2022-12-18T18:21:51.301Z,88.53
2022-12-18T18:26:54.800Z,88.58
2022-12-18T18:31:59.312Z,88.55
2022-12-18T18:37:03.235Z,88.29
2022-12-18T18:42:06.359Z,88.14
2022-12-18T18:47:09.708Z,87.95
2022-12-18T18:52:12.870Z,87.67
2022-12-18T18:57:20.996Z,87.61
2022-12-18T19:02:24.722Z,87.46
2022-12-18T19:07:30.384Z,87.43
2022-12-18T19:12:53.841Z,87.32
2022-12-18T19:17:56.732Z,87.28
2022-12-18T19:23:00.299Z,87.26
2022-12-18T19:28:03.335Z,86.89
2022-12-18T19:33:34.554Z,86.45
2022-12-18T19:38:31.789Z,86.32
2022-12-18T19:43:38.129Z,86.42
2022-12-18T19:48:43.594Z,86.04
2022-12-18T19:53:47.903Z,86.01
2022-12-18T19:58:51.030Z,86.21
2022-12-18T20:03:55.951Z,86.21
2022-12-18T20:09:05.715Z,86.69
2022-12-18T20:14:13.182Z,86.57
2022-12-18T20:19:16.227Z,86.75
2022-12-18T20:24:27.432Z,86.88
2022-12-18T20:29:33.699Z,86.90
2022-12-18T20:34:37.757Z,86.99
2022-12-18T20:39:41.384Z,86.74
2022-12-18T20:44:45.868Z,86.37
2022-12-18T20:49:48.879Z,85.90
2022-12-18T20:54:51.879Z,86.11
2022-12-18T20:59:54.876Z,86.38
2022-12-18T21:04:57.960Z,86.14
2022-12-18T21:10:04.404Z,86.13
2022-12-18T21:15:10.899Z,86.33
2022-12-18T21:20:17.781Z,85.93
2022-12-18T21:25:21.878Z,85.56
2022-12-18T21:30:24.978Z,85.15
2022-12-18T21:35:27.979Z,84.83
2022-12-18T21:40:33.928Z,85.01
2022-12-18T21:45:37.090Z,84.96
2022-12-18T21:50:39.973Z,84.89
2022-12-18T21:55:42.843Z,84.93
2022-12-18T22:00:48.794Z,85.29
2022-12-18T22:06:04.082Z,85.44
2022-12-18T22:11:13.283Z,85.35
2022-12-18T22:16:16.619Z,84.85
2022-12-18T22:21:32.943Z,84.26
2022-12-18T22:26:40.175Z,83.81
2022-12-18T22:31:43.562Z,83.69
2022-12-18T22:36:48.780Z,83.25
2022-12-18T22:41:52.507Z,84.11
2022-12-18T22:47:05.646Z,84.23
2022-12-18T22:52:10.178Z,83.97
2022-12-18T22:57:13.186Z,84.18
2022-12-18T23:02:17.859Z,84.13
2022-12-18T23:07:21.431Z,84.14
2022-12-18T23:12:24.356Z,84.21
2022-12-18T23:17:28.559Z,84.11
2022-12-18T23:22:31.702Z,83.91
2022-12-18T23:27:34.694Z,83.82
2022-12-18T23:32:38.781Z,83.49
2022-12-18T23:37:58.770Z,83.14
2022-12-18T23:43:02.524Z,83.33
2022-12-18T23:48:05.437Z,83.49
2022-12-18T23:53:10.261Z,83.81
2022-12-18T23:58:20.785Z,84.21
